100LL.CA
Aviation Fuel Pricing for Canadians
Please upgrade your browser - Tested with IE9, FireFox, Chrome, Safari

Fuel Airports Other Help
Prices Economy Info List METAR/TAF Kneeboard Help

Reference Airport: PENTICTON, BC
N 49 27 45  W 119 36 08
Provinces to show:

CYYF PENTICTON, BC
WEATHER
METARCYYF 131800Z 34012KT 15SM FEW170 FEW240 12/01 A2995 RMK AC1CI1 AC TR SLP151
TAFTAF CYYF 131240Z 1313/1401 VRB03KT P6SM FEW150 BECMG 1315/1317 36008KT RMK NXT FCST BY 131900Z
OTHER SITES

FlightAware

FltPlan

Google Maps

SkyVector
FUEL
FBO 100LL
member
100LL
public
JETA MOGAS
Executive Flight Center (2024-04-15)2.5032.5732.263
  Note: http://www.efcaviation.ca
Canada Flight Supplement - CYYF
(opens in new tab/window)


Please Send Updates!

Desktop Version ]  [ Mobile Version ]  [ Disclaimer ]